sensor_id;sensor_type;location;lat;lon;timestamp;P1;durP1;ratioP1;P2;durP2;ratioP2
41512;SDS011;27244;59.940;30.280;2022-12-28T00:01:40;12.63;;;9.77;;
41512;SDS011;27244;59.940;30.280;2022-12-28T00:04:12;14.02;;;9.88;;
41512;SDS011;27244;59.940;30.280;2022-12-28T00:06:39;11.88;;;9.45;;
41512;SDS011;27244;59.940;30.280;2022-12-28T00:09:07;13.88;;;9.63;;
41512;SDS011;27244;59.940;30.280;2022-12-28T00:11:36;11.55;;;8.90;;
41512;SDS011;27244;59.940;30.280;2022-12-28T00:14:04;12.93;;;9.35;;
41512;SDS011;27244;59.940;30.280;2022-12-28T00:16:32;11.05;;;8.80;;
41512;SDS011;27244;59.940;30.280;2022-12-28T00:19:02;10.45;;;8.43;;
41512;SDS011;27244;59.940;30.280;2022-12-28T00:21:31;10.98;;;8.27;;
41512;SDS011;27244;59.940;30.280;2022-12-28T00:23:59;11.25;;;8.43;;
41512;SDS011;27244;59.940;30.280;2022-12-28T00:26:28;13.40;;;8.27;;
41512;SDS011;27244;59.940;30.280;2022-12-28T00:28:56;10.95;;;8.20;;
41512;SDS011;27244;59.940;30.280;2022-12-28T00:31:23;11.07;;;7.68;;
41512;SDS011;27244;59.940;30.280;2022-12-28T00:33:50;11.70;;;8.05;;
41512;SDS011;27244;59.940;30.280;2022-12-28T00:36:17;11.00;;;7.78;;
41512;SDS011;27244;59.940;30.280;2022-12-28T00:38:47;11.05;;;7.15;;
41512;SDS011;27244;59.940;30.280;2022-12-28T00:41:14;11.18;;;7.43;;
41512;SDS011;27244;59.940;30.280;2022-12-28T00:43:41;9.52;;;7.03;;
41512;SDS011;27244;59.940;30.280;2022-12-28T00:46:08;10.05;;;7.20;;
41512;SDS011;27244;59.940;30.280;2022-12-28T00:48:35;9.68;;;6.70;;
41512;SDS011;27244;59.940;30.280;2022-12-28T00:51:03;9.48;;;6.97;;
41512;SDS011;27244;59.940;30.280;2022-12-28T00:53:32;8.25;;;6.28;;
41512;SDS011;27244;59.940;30.280;2022-12-28T00:56:06;10.85;;;6.50;;
41512;SDS011;27244;59.940;30.280;2022-12-28T00:58:36;9.10;;;6.40;;
41512;SDS011;27244;59.940;30.280;2022-12-28T01:01:03;8.82;;;6.20;;
41512;SDS011;27244;59.940;30.280;2022-12-28T01:03:32;8.82;;;6.40;;
41512;SDS011;27244;59.940;30.280;2022-12-28T01:05:59;8.32;;;6.22;;
41512;SDS011;27244;59.940;30.280;2022-12-28T01:10:57;8.75;;;5.70;;
41512;SDS011;27244;59.940;30.280;2022-12-28T01:13:25;7.97;;;5.40;;
41512;SDS011;27244;59.940;30.280;2022-12-28T01:15:52;8.45;;;6.00;;
41512;SDS011;27244;59.940;30.280;2022-12-28T01:18:19;7.90;;;5.57;;
41512;SDS011;27244;59.940;30.280;2022-12-28T01:20:47;7.55;;;5.95;;
41512;SDS011;27244;59.940;30.280;2022-12-28T01:23:14;9.15;;;5.68;;
41512;SDS011;27244;59.940;30.280;2022-12-28T01:25:41;7.97;;;5.13;;
41512;SDS011;27244;59.940;30.280;2022-12-28T01:28:08;10.95;;;6.10;;
41512;SDS011;27244;59.940;30.280;2022-12-28T01:30:36;7.93;;;5.18;;
41512;SDS011;27244;59.940;30.280;2022-12-28T01:33:03;6.30;;;4.75;;
41512;SDS011;27244;59.940;30.280;2022-12-28T01:35:30;7.68;;;5.00;;
41512;SDS011;27244;59.940;30.280;2022-12-28T01:37:57;7.43;;;5.45;;
41512;SDS011;27244;59.940;30.280;2022-12-28T01:40:24;7.28;;;4.65;;
41512;SDS011;27244;59.940;30.280;2022-12-28T01:42:51;8.05;;;4.47;;
41512;SDS011;27244;59.940;30.280;2022-12-28T01:45:19;7.20;;;4.80;;
41512;SDS011;27244;59.940;30.280;2022-12-28T01:47:49;7.30;;;5.07;;
41512;SDS011;27244;59.940;30.280;2022-12-28T01:50:20;6.13;;;4.10;;
41512;SDS011;27244;59.940;30.280;2022-12-28T01:55:26;7.90;;;4.53;;
41512;SDS011;27244;59.940;30.280;2022-12-28T01:57:57;7.05;;;4.85;;
41512;SDS011;27244;59.940;30.280;2022-12-28T02:00:28;5.50;;;4.00;;
41512;SDS011;27244;59.940;30.280;2022-12-28T02:02:57;6.10;;;3.88;;
41512;SDS011;27244;59.940;30.280;2022-12-28T02:05:28;6.18;;;3.60;;
41512;SDS011;27244;59.940;30.280;2022-12-28T02:08:00;7.18;;;4.53;;
41512;SDS011;27244;59.940;30.280;2022-12-28T02:10:31;7.25;;;4.43;;
41512;SDS011;27244;59.940;30.280;2022-12-28T02:12:58;5.60;;;4.03;;
41512;SDS011;27244;59.940;30.280;2022-12-28T02:15:26;6.78;;;4.03;;
41512;SDS011;27244;59.940;30.280;2022-12-28T02:17:53;5.97;;;3.72;;
41512;SDS011;27244;59.940;30.280;2022-12-28T02:20:23;5.72;;;3.72;;
41512;SDS011;27244;59.940;30.280;2022-12-28T02:26:04;4.72;;;3.85;;
41512;SDS011;27244;59.940;30.280;2022-12-28T02:28:59;6.68;;;3.65;;
41512;SDS011;27244;59.940;30.280;2022-12-28T02:31:39;4.50;;;3.20;;
41512;SDS011;27244;59.940;30.280;2022-12-28T02:34:13;6.75;;;3.47;;
41512;SDS011;27244;59.940;30.280;2022-12-28T02:36:49;5.25;;;3.55;;
41512;SDS011;27244;59.940;30.280;2022-12-28T02:39:21;5.15;;;3.35;;
41512;SDS011;27244;59.940;30.280;2022-12-28T02:41:54;7.00;;;3.20;;
41512;SDS011;27244;59.940;30.280;2022-12-28T02:44:24;5.57;;;2.97;;
41512;SDS011;27244;59.940;30.280;2022-12-28T02:47:06;5.32;;;3.00;;
41512;SDS011;27244;59.940;30.280;2022-12-28T02:49:56;5.20;;;2.95;;
41512;SDS011;27244;59.940;30.280;2022-12-28T02:55:36;5.20;;;3.05;;
41512;SDS011;27244;59.940;30.280;2022-12-28T03:01:46;5.25;;;3.30;;
41512;SDS011;27244;59.940;30.280;2022-12-28T03:04:26;5.70;;;3.15;;
41512;SDS011;27244;59.940;30.280;2022-12-28T03:07:03;6.05;;;3.20;;
41512;SDS011;27244;59.940;30.280;2022-12-28T03:09:54;4.88;;;3.28;;
41512;SDS011;27244;59.940;30.280;2022-12-28T03:12:33;4.65;;;3.33;;
41512;SDS011;27244;59.940;30.280;2022-12-28T03:15:06;3.97;;;2.83;;
41512;SDS011;27244;59.940;30.280;2022-12-28T03:17:39;4.65;;;2.90;;
41512;SDS011;27244;59.940;30.280;2022-12-28T03:20:27;4.80;;;2.78;;
41512;SDS011;27244;59.940;30.280;2022-12-28T03:23:15;4.95;;;2.95;;
41512;SDS011;27244;59.940;30.280;2022-12-28T03:26:03;5.30;;;2.47;;
41512;SDS011;27244;59.940;30.280;2022-12-28T03:28:52;4.95;;;3.08;;
41512;SDS011;27244;59.940;30.280;2022-12-28T03:31:40;6.28;;;3.15;;
41512;SDS011;27244;59.940;30.280;2022-12-28T03:34:12;4.07;;;3.13;;
41512;SDS011;27244;59.940;30.280;2022-12-28T03:36:46;11.15;;;3.65;;
41512;SDS011;27244;59.940;30.280;2022-12-28T03:39:23;4.53;;;3.28;;
41512;SDS011;27244;59.940;30.280;2022-12-28T03:42:00;5.82;;;3.17;;
41512;SDS011;27244;59.940;30.280;2022-12-28T03:44:56;4.18;;;2.83;;
41512;SDS011;27244;59.940;30.280;2022-12-28T03:47:28;4.35;;;2.85;;
41512;SDS011;27244;59.940;30.280;2022-12-28T03:49:58;6.00;;;3.03;;
41512;SDS011;27244;59.940;30.280;2022-12-28T03:52:26;8.18;;;2.92;;
41512;SDS011;27244;59.940;30.280;2022-12-28T03:54:55;6.30;;;3.13;;
41512;SDS011;27244;59.940;30.280;2022-12-28T03:57:22;4.80;;;3.10;;
41512;SDS011;27244;59.940;30.280;2022-12-28T03:59:49;4.63;;;3.00;;
41512;SDS011;27244;59.940;30.280;2022-12-28T04:02:17;4.93;;;3.00;;
41512;SDS011;27244;59.940;30.280;2022-12-28T04:04:45;5.18;;;2.97;;
41512;SDS011;27244;59.940;30.280;2022-12-28T04:07:14;5.70;;;2.97;;
41512;SDS011;27244;59.940;30.280;2022-12-28T04:09:40;5.15;;;3.15;;
41512;SDS011;27244;59.940;30.280;2022-12-28T04:12:09;5.80;;;3.40;;
41512;SDS011;27244;59.940;30.280;2022-12-28T04:15:05;6.20;;;3.30;;
41512;SDS011;27244;59.940;30.280;2022-12-28T04:17:33;5.07;;;3.10;;
41512;SDS011;27244;59.940;30.280;2022-12-28T04:20:00;5.22;;;3.30;;
41512;SDS011;27244;59.940;30.280;2022-12-28T04:22:29;6.97;;;3.30;;
41512;SDS011;27244;59.940;30.280;2022-12-28T04:24:57;6.88;;;3.20;;
41512;SDS011;27244;59.940;30.280;2022-12-28T04:27:24;5.68;;;2.92;;
41512;SDS011;27244;59.940;30.280;2022-12-28T04:29:54;6.22;;;3.65;;
41512;SDS011;27244;59.940;30.280;2022-12-28T04:32:23;5.82;;;3.55;;
41512;SDS011;27244;59.940;30.280;2022-12-28T04:34:49;5.22;;;3.25;;
41512;SDS011;27244;59.940;30.280;2022-12-28T04:37:17;5.60;;;3.17;;
41512;SDS011;27244;59.940;30.280;2022-12-28T04:39:45;4.13;;;2.97;;
41512;SDS011;27244;59.940;30.280;2022-12-28T04:42:12;5.55;;;3.35;;
41512;SDS011;27244;59.940;30.280;2022-12-28T04:44:39;3.78;;;2.47;;
41512;SDS011;27244;59.940;30.280;2022-12-28T04:47:06;4.85;;;2.92;;
41512;SDS011;27244;59.940;30.280;2022-12-28T04:49:33;5.88;;;2.95;;
41512;SDS011;27244;59.940;30.280;2022-12-28T04:52:00;5.72;;;3.30;;
41512;SDS011;27244;59.940;30.280;2022-12-28T04:54:27;5.47;;;2.80;;
41512;SDS011;27244;59.940;30.280;2022-12-28T04:56:55;5.38;;;3.17;;
41512;SDS011;27244;59.940;30.280;2022-12-28T04:59:22;5.50;;;3.15;;
41512;SDS011;27244;59.940;30.280;2022-12-28T05:01:51;4.90;;;2.63;;
41512;SDS011;27244;59.940;30.280;2022-12-28T05:06:47;4.30;;;3.00;;
41512;SDS011;27244;59.940;30.280;2022-12-28T05:09:14;4.82;;;2.88;;
41512;SDS011;27244;59.940;30.280;2022-12-28T05:11:43;4.30;;;2.72;;
41512;SDS011;27244;59.940;30.280;2022-12-28T05:14:11;4.05;;;2.70;;
41512;SDS011;27244;59.940;30.280;2022-12-28T05:16:39;4.88;;;3.05;;
41512;SDS011;27244;59.940;30.280;2022-12-28T05:19:06;5.22;;;3.08;;
41512;SDS011;27244;59.940;30.280;2022-12-28T05:21:33;4.70;;;3.17;;
41512;SDS011;27244;59.940;30.280;2022-12-28T05:24:00;5.63;;;2.80;;
41512;SDS011;27244;59.940;30.280;2022-12-28T05:26:27;5.60;;;2.75;;
41512;SDS011;27244;59.940;30.280;2022-12-28T05:28:55;4.45;;;2.70;;
41512;SDS011;27244;59.940;30.280;2022-12-28T05:31:24;4.38;;;2.50;;
41512;SDS011;27244;59.940;30.280;2022-12-28T05:33:52;3.97;;;2.45;;
41512;SDS011;27244;59.940;30.280;2022-12-28T05:36:20;5.28;;;2.92;;
41512;SDS011;27244;59.940;30.280;2022-12-28T05:38:54;3.72;;;2.50;;
41512;SDS011;27244;59.940;30.280;2022-12-28T05:41:41;4.35;;;2.58;;
41512;SDS011;27244;59.940;30.280;2022-12-28T05:44:08;5.93;;;2.30;;
41512;SDS011;27244;59.940;30.280;2022-12-28T05:46:36;5.53;;;2.90;;
41512;SDS011;27244;59.940;30.280;2022-12-28T05:49:03;4.80;;;2.97;;
41512;SDS011;27244;59.940;30.280;2022-12-28T05:51:33;4.75;;;2.47;;
41512;SDS011;27244;59.940;30.280;2022-12-28T05:54:01;4.22;;;2.65;;
41512;SDS011;27244;59.940;30.280;2022-12-28T05:56:29;6.07;;;3.00;;
41512;SDS011;27244;59.940;30.280;2022-12-28T05:58:57;4.18;;;2.80;;
41512;SDS011;27244;59.940;30.280;2022-12-28T06:01:26;5.00;;;2.70;;
41512;SDS011;27244;59.940;30.280;2022-12-28T06:06:25;4.50;;;2.55;;
41512;SDS011;27244;59.940;30.280;2022-12-28T06:08:53;3.45;;;2.30;;
41512;SDS011;27244;59.940;30.280;2022-12-28T06:11:21;4.90;;;2.20;;
41512;SDS011;27244;59.940;30.280;2022-12-28T06:13:50;5.15;;;2.65;;
41512;SDS011;27244;59.940;30.280;2022-12-28T06:16:18;3.38;;;2.38;;
41512;SDS011;27244;59.940;30.280;2022-12-28T06:18:47;3.13;;;2.00;;
41512;SDS011;27244;59.940;30.280;2022-12-28T06:21:37;4.10;;;1.95;;
41512;SDS011;27244;59.940;30.280;2022-12-28T06:24:09;3.88;;;2.17;;
41512;SDS011;27244;59.940;30.280;2022-12-28T06:26:38;4.57;;;2.17;;
41512;SDS011;27244;59.940;30.280;2022-12-28T06:29:07;3.45;;;2.10;;
41512;SDS011;27244;59.940;30.280;2022-12-28T06:31:34;3.55;;;2.20;;
41512;SDS011;27244;59.940;30.280;2022-12-28T06:34:03;4.88;;;2.20;;
41512;SDS011;27244;59.940;30.280;2022-12-28T06:36:32;4.93;;;1.98;;
41512;SDS011;27244;59.940;30.280;2022-12-28T06:39:02;3.35;;;1.75;;
41512;SDS011;27244;59.940;30.280;2022-12-28T06:41:31;2.90;;;2.00;;
41512;SDS011;27244;59.940;30.280;2022-12-28T06:43:58;3.72;;;1.90;;
41512;SDS011;27244;59.940;30.280;2022-12-28T06:46:26;2.63;;;1.77;;
41512;SDS011;27244;59.940;30.280;2022-12-28T06:48:54;4.72;;;1.70;;
41512;SDS011;27244;59.940;30.280;2022-12-28T06:51:22;2.95;;;1.90;;
41512;SDS011;27244;59.940;30.280;2022-12-28T06:53:50;3.15;;;1.85;;
41512;SDS011;27244;59.940;30.280;2022-12-28T06:56:23;3.10;;;1.98;;
41512;SDS011;27244;59.940;30.280;2022-12-28T06:58:52;2.78;;;1.50;;
41512;SDS011;27244;59.940;30.280;2022-12-28T07:01:19;3.40;;;1.80;;
41512;SDS011;27244;59.940;30.280;2022-12-28T07:03:49;3.00;;;1.80;;
41512;SDS011;27244;59.940;30.280;2022-12-28T07:06:19;3.40;;;1.80;;
41512;SDS011;27244;59.940;30.280;2022-12-28T07:08:47;3.10;;;1.63;;
41512;SDS011;27244;59.940;30.280;2022-12-28T07:11:16;2.55;;;1.63;;
41512;SDS011;27244;59.940;30.280;2022-12-28T07:13:46;2.08;;;1.40;;
41512;SDS011;27244;59.940;30.280;2022-12-28T07:16:14;4.60;;;1.98;;
41512;SDS011;27244;59.940;30.280;2022-12-28T07:18:42;3.45;;;1.63;;
41512;SDS011;27244;59.940;30.280;2022-12-28T07:21:10;4.50;;;1.85;;
41512;SDS011;27244;59.940;30.280;2022-12-28T07:23:39;4.05;;;1.80;;
41512;SDS011;27244;59.940;30.280;2022-12-28T07:26:07;2.30;;;1.42;;
41512;SDS011;27244;59.940;30.280;2022-12-28T07:28:36;1.70;;;1.27;;
41512;SDS011;27244;59.940;30.280;2022-12-28T07:31:05;2.92;;;1.52;;
41512;SDS011;27244;59.940;30.280;2022-12-28T07:33:34;4.93;;;1.60;;
41512;SDS011;27244;59.940;30.280;2022-12-28T07:36:02;5.95;;;1.60;;
41512;SDS011;27244;59.940;30.280;2022-12-28T07:38:30;4.75;;;1.80;;
41512;SDS011;27244;59.940;30.280;2022-12-28T07:41:01;4.18;;;1.50;;
41512;SDS011;27244;59.940;30.280;2022-12-28T07:43:29;5.68;;;2.10;;
41512;SDS011;27244;59.940;30.280;2022-12-28T07:46:00;4.35;;;2.30;;
41512;SDS011;27244;59.940;30.280;2022-12-28T07:48:29;6.05;;;2.70;;
41512;SDS011;27244;59.940;30.280;2022-12-28T07:50:57;7.15;;;4.30;;
41512;SDS011;27244;59.940;30.280;2022-12-28T07:53:30;8.73;;;4.70;;
41512;SDS011;27244;59.940;30.280;2022-12-28T07:55:57;9.95;;;5.47;;
41512;SDS011;27244;59.940;30.280;2022-12-28T07:58:25;10.98;;;4.95;;
41512;SDS011;27244;59.940;30.280;2022-12-28T08:00:52;13.15;;;6.63;;
41512;SDS011;27244;59.940;30.280;2022-12-28T08:03:19;15.13;;;8.05;;
41512;SDS011;27244;59.940;30.280;2022-12-28T08:05:47;15.43;;;8.13;;
41512;SDS011;27244;59.940;30.280;2022-12-28T08:08:14;17.27;;;9.38;;
41512;SDS011;27244;59.940;30.280;2022-12-28T08:10:41;18.52;;;9.38;;
41512;SDS011;27244;59.940;30.280;2022-12-28T08:13:08;15.77;;;9.52;;
41512;SDS011;27244;59.940;30.280;2022-12-28T08:15:35;17.77;;;8.93;;
41512;SDS011;27244;59.940;30.280;2022-12-28T08:18:02;19.33;;;10.38;;
41512;SDS011;27244;59.940;30.280;2022-12-28T08:20:29;21.63;;;11.27;;
41512;SDS011;27244;59.940;30.280;2022-12-28T08:22:58;18.63;;;9.77;;
41512;SDS011;27244;59.940;30.280;2022-12-28T08:25:25;19.05;;;10.05;;
41512;SDS011;27244;59.940;30.280;2022-12-28T08:27:52;17.55;;;8.93;;
41512;SDS011;27244;59.940;30.280;2022-12-28T08:30:18;16.48;;;8.80;;
41512;SDS011;27244;59.940;30.280;2022-12-28T08:32:47;17.15;;;9.63;;
41512;SDS011;27244;59.940;30.280;2022-12-28T08:35:14;17.27;;;9.98;;
41512;SDS011;27244;59.940;30.280;2022-12-28T08:37:41;17.77;;;9.45;;
41512;SDS011;27244;59.940;30.280;2022-12-28T08:40:10;20.85;;;10.55;;
41512;SDS011;27244;59.940;30.280;2022-12-28T08:42:37;16.70;;;9.25;;
41512;SDS011;27244;59.940;30.280;2022-12-28T08:45:04;21.30;;;11.40;;
41512;SDS011;27244;59.940;30.280;2022-12-28T08:47:34;19.45;;;10.68;;
41512;SDS011;27244;59.940;30.280;2022-12-28T08:50:01;19.15;;;10.95;;
41512;SDS011;27244;59.940;30.280;2022-12-28T08:52:28;17.70;;;10.68;;
41512;SDS011;27244;59.940;30.280;2022-12-28T08:54:55;21.80;;;10.75;;
41512;SDS011;27244;59.940;30.280;2022-12-28T08:57:23;17.35;;;10.35;;
41512;SDS011;27244;59.940;30.280;2022-12-28T09:02:20;19.08;;;10.27;;
41512;SDS011;27244;59.940;30.280;2022-12-28T09:04:47;18.77;;;10.15;;
41512;SDS011;27244;59.940;30.280;2022-12-28T09:07:16;17.73;;;10.25;;
41512;SDS011;27244;59.940;30.280;2022-12-28T09:09:43;17.60;;;10.32;;
41512;SDS011;27244;59.940;30.280;2022-12-28T09:12:10;17.35;;;10.25;;
41512;SDS011;27244;59.940;30.280;2022-12-28T09:14:39;21.60;;;11.50;;
41512;SDS011;27244;59.940;30.280;2022-12-28T09:17:06;19.20;;;10.25;;
41512;SDS011;27244;59.940;30.280;2022-12-28T09:19:35;16.77;;;9.90;;
41512;SDS011;27244;59.940;30.280;2022-12-28T09:22:16;20.88;;;11.30;;
41512;SDS011;27244;59.940;30.280;2022-12-28T09:24:46;18.55;;;10.13;;
41512;SDS011;27244;59.940;30.280;2022-12-28T09:27:13;19.33;;;11.32;;
41512;SDS011;27244;59.940;30.280;2022-12-28T09:29:41;18.98;;;9.40;;
41512;SDS011;27244;59.940;30.280;2022-12-28T09:32:08;15.88;;;9.25;;
41512;SDS011;27244;59.940;30.280;2022-12-28T09:34:35;16.90;;;9.82;;
41512;SDS011;27244;59.940;30.280;2022-12-28T09:37:02;16.23;;;10.20;;
41512;SDS011;27244;59.940;30.280;2022-12-28T09:39:29;14.80;;;9.40;;
41512;SDS011;27244;59.940;30.280;2022-12-28T09:41:56;16.05;;;9.75;;
41512;SDS011;27244;59.940;30.280;2022-12-28T09:44:32;16.15;;;9.30;;
41512;SDS011;27244;59.940;30.280;2022-12-28T09:47:10;17.05;;;9.95;;
41512;SDS011;27244;59.940;30.280;2022-12-28T09:49:47;15.88;;;9.40;;
41512;SDS011;27244;59.940;30.280;2022-12-28T09:52:24;17.92;;;9.68;;
41512;SDS011;27244;59.940;30.280;2022-12-28T09:54:54;17.33;;;9.70;;
41512;SDS011;27244;59.940;30.280;2022-12-28T09:57:31;15.60;;;9.40;;
41512;SDS011;27244;59.940;30.280;2022-12-28T10:00:05;16.27;;;9.73;;
41512;SDS011;27244;59.940;30.280;2022-12-28T10:02:41;13.57;;;8.57;;
41512;SDS011;27244;59.940;30.280;2022-12-28T10:05:12;15.50;;;9.23;;
41512;SDS011;27244;59.940;30.280;2022-12-28T10:07:42;15.27;;;9.27;;
41512;SDS011;27244;59.940;30.280;2022-12-28T10:12:40;14.32;;;8.50;;
41512;SDS011;27244;59.940;30.280;2022-12-28T10:15:09;13.82;;;8.25;;
41512;SDS011;27244;59.940;30.280;2022-12-28T10:17:38;14.32;;;8.45;;
41512;SDS011;27244;59.940;30.280;2022-12-28T10:20:12;15.23;;;8.73;;
41512;SDS011;27244;59.940;30.280;2022-12-28T10:22:45;12.88;;;8.57;;
41512;SDS011;27244;59.940;30.280;2022-12-28T10:25:16;14.10;;;8.50;;
41512;SDS011;27244;59.940;30.280;2022-12-28T10:27:45;13.00;;;7.97;;
41512;SDS011;27244;59.940;30.280;2022-12-28T10:30:16;11.65;;;7.15;;
41512;SDS011;27244;59.940;30.280;2022-12-28T10:32:48;12.98;;;7.75;;
41512;SDS011;27244;59.940;30.280;2022-12-28T10:35:25;10.88;;;7.18;;
41512;SDS011;27244;59.940;30.280;2022-12-28T10:37:56;11.25;;;7.05;;
41512;SDS011;27244;59.940;30.280;2022-12-28T10:40:29;12.40;;;7.30;;
41512;SDS011;27244;59.940;30.280;2022-12-28T10:42:58;12.10;;;7.03;;
41512;SDS011;27244;59.940;30.280;2022-12-28T10:45:33;12.23;;;7.10;;
41512;SDS011;27244;59.940;30.280;2022-12-28T10:48:01;11.95;;;7.72;;
41512;SDS011;27244;59.940;30.280;2022-12-28T10:50:43;11.82;;;7.47;;
41512;SDS011;27244;59.940;30.280;2022-12-28T10:53:18;12.15;;;7.95;;
41512;SDS011;27244;59.940;30.280;2022-12-28T10:56:00;11.75;;;7.32;;
41512;SDS011;27244;59.940;30.280;2022-12-28T10:58:31;11.43;;;7.43;;
41512;SDS011;27244;59.940;30.280;2022-12-28T11:00:59;10.52;;;6.65;;
41512;SDS011;27244;59.940;30.280;2022-12-28T11:03:29;10.38;;;6.68;;
41512;SDS011;27244;59.940;30.280;2022-12-28T11:06:08;11.73;;;7.07;;
41512;SDS011;27244;59.940;30.280;2022-12-28T11:08:42;10.80;;;6.53;;
41512;SDS011;27244;59.940;30.280;2022-12-28T11:11:18;10.93;;;6.35;;
41512;SDS011;27244;59.940;30.280;2022-12-28T11:13:48;9.93;;;6.50;;
41512;SDS011;27244;59.940;30.280;2022-12-28T11:16:17;10.55;;;6.15;;
41512;SDS011;27244;59.940;30.280;2022-12-28T11:18:47;9.48;;;6.05;;
41512;SDS011;27244;59.940;30.280;2022-12-28T11:21:17;9.77;;;6.13;;
41512;SDS011;27244;59.940;30.280;2022-12-28T11:23:46;10.00;;;6.38;;
41512;SDS011;27244;59.940;30.280;2022-12-28T11:26:14;10.63;;;6.32;;
41512;SDS011;27244;59.940;30.280;2022-12-28T11:28:42;9.90;;;6.40;;
41512;SDS011;27244;59.940;30.280;2022-12-28T11:31:15;9.57;;;5.75;;
41512;SDS011;27244;59.940;30.280;2022-12-28T11:33:46;9.70;;;5.68;;
41512;SDS011;27244;59.940;30.280;2022-12-28T11:36:17;9.50;;;6.40;;
41512;SDS011;27244;59.940;30.280;2022-12-28T11:38:47;9.25;;;5.72;;
41512;SDS011;27244;59.940;30.280;2022-12-28T11:44:08;9.13;;;5.88;;
41512;SDS011;27244;59.940;30.280;2022-12-28T11:46:55;11.85;;;6.78;;
41512;SDS011;27244;59.940;30.280;2022-12-28T11:49:29;9.32;;;5.82;;
41512;SDS011;27244;59.940;30.280;2022-12-28T12:01:43;8.65;;;5.38;;
41512;SDS011;27244;59.940;30.280;2022-12-28T12:04:26;8.73;;;5.53;;
41512;SDS011;27244;59.940;30.280;2022-12-28T12:16:07;8.32;;;5.00;;
41512;SDS011;27244;59.940;30.280;2022-12-28T12:18:45;9.57;;;5.30;;
41512;SDS011;27244;59.940;30.280;2022-12-28T12:21:20;7.40;;;4.95;;
41512;SDS011;27244;59.940;30.280;2022-12-28T12:23:55;6.60;;;4.28;;
41512;SDS011;27244;59.940;30.280;2022-12-28T12:26:34;7.75;;;4.55;;
41512;SDS011;27244;59.940;30.280;2022-12-28T12:29:06;6.60;;;4.63;;
41512;SDS011;27244;59.940;30.280;2022-12-28T12:31:41;6.85;;;4.38;;
41512;SDS011;27244;59.940;30.280;2022-12-28T12:34:13;7.30;;;4.65;;
41512;SDS011;27244;59.940;30.280;2022-12-28T12:36:53;8.57;;;4.93;;
41512;SDS011;27244;59.940;30.280;2022-12-28T12:39:42;8.27;;;4.63;;
41512;SDS011;27244;59.940;30.280;2022-12-28T12:42:32;8.18;;;4.90;;
41512;SDS011;27244;59.940;30.280;2022-12-28T12:45:11;7.25;;;4.80;;
41512;SDS011;27244;59.940;30.280;2022-12-28T12:47:53;7.13;;;4.80;;
41512;SDS011;27244;59.940;30.280;2022-12-28T12:50:52;6.43;;;4.95;;
41512;SDS011;27244;59.940;30.280;2022-12-28T12:53:32;7.50;;;4.85;;
41512;SDS011;27244;59.940;30.280;2022-12-28T12:56:17;6.80;;;5.10;;
41512;SDS011;27244;59.940;30.280;2022-12-28T13:01:32;6.47;;;5.05;;
41512;SDS011;27244;59.940;30.280;2022-12-28T13:04:07;7.90;;;5.70;;
41512;SDS011;27244;59.940;30.280;2022-12-28T13:06:40;8.38;;;5.47;;
41512;SDS011;27244;59.940;30.280;2022-12-28T13:09:11;7.32;;;5.60;;
41512;SDS011;27244;59.940;30.280;2022-12-28T13:11:41;10.00;;;6.53;;
41512;SDS011;27244;59.940;30.280;2022-12-28T13:14:13;10.85;;;7.25;;
41512;SDS011;27244;59.940;30.280;2022-12-28T13:16:45;10.38;;;7.30;;
41512;SDS011;27244;59.940;30.280;2022-12-28T13:19:15;14.15;;;7.20;;
41512;SDS011;27244;59.940;30.280;2022-12-28T13:21:45;9.55;;;7.05;;
41512;SDS011;27244;59.940;30.280;2022-12-28T13:24:17;12.02;;;7.57;;
41512;SDS011;27244;59.940;30.280;2022-12-28T13:26:46;13.90;;;8.55;;
41512;SDS011;27244;59.940;30.280;2022-12-28T13:29:16;14.43;;;8.77;;
41512;SDS011;27244;59.940;30.280;2022-12-28T13:31:45;14.40;;;8.82;;
41512;SDS011;27244;59.940;30.280;2022-12-28T13:34:15;14.50;;;8.65;;
41512;SDS011;27244;59.940;30.280;2022-12-28T13:36:48;12.43;;;8.20;;
41512;SDS011;27244;59.940;30.280;2022-12-28T13:39:18;13.82;;;8.80;;
41512;SDS011;27244;59.940;30.280;2022-12-28T13:41:47;13.63;;;8.68;;
41512;SDS011;27244;59.940;30.280;2022-12-28T13:44:20;15.00;;;8.98;;
41512;SDS011;27244;59.940;30.280;2022-12-28T13:46:54;12.10;;;8.50;;
41512;SDS011;27244;59.940;30.280;2022-12-28T13:49:25;12.82;;;8.95;;
41512;SDS011;27244;59.940;30.280;2022-12-28T13:51:54;14.73;;;8.63;;
41512;SDS011;27244;59.940;30.280;2022-12-28T13:54:21;13.70;;;8.27;;
41512;SDS011;27244;59.940;30.280;2022-12-28T13:56:50;12.38;;;7.95;;
41512;SDS011;27244;59.940;30.280;2022-12-28T13:59:21;12.15;;;8.02;;
41512;SDS011;27244;59.940;30.280;2022-12-28T14:01:48;14.75;;;8.25;;
41512;SDS011;27244;59.940;30.280;2022-12-28T14:04:18;15.32;;;8.35;;
41512;SDS011;27244;59.940;30.280;2022-12-28T14:06:51;11.18;;;7.93;;
41512;SDS011;27244;59.940;30.280;2022-12-28T14:09:18;12.90;;;8.48;;
41512;SDS011;27244;59.940;30.280;2022-12-28T14:11:46;12.38;;;7.47;;
41512;SDS011;27244;59.940;30.280;2022-12-28T14:14:14;10.18;;;7.40;;
41512;SDS011;27244;59.940;30.280;2022-12-28T14:16:43;10.45;;;7.43;;
41512;SDS011;27244;59.940;30.280;2022-12-28T14:19:11;12.07;;;7.75;;
41512;SDS011;27244;59.940;30.280;2022-12-28T14:21:39;12.20;;;7.63;;
41512;SDS011;27244;59.940;30.280;2022-12-28T14:24:08;11.65;;;7.53;;
41512;SDS011;27244;59.940;30.280;2022-12-28T14:26:39;10.38;;;7.10;;
41512;SDS011;27244;59.940;30.280;2022-12-28T14:29:14;13.88;;;7.75;;
41512;SDS011;27244;59.940;30.280;2022-12-28T14:31:48;11.82;;;6.57;;
41512;SDS011;27244;59.940;30.280;2022-12-28T14:34:22;16.17;;;7.15;;
41512;SDS011;27244;59.940;30.280;2022-12-28T14:39:30;10.32;;;6.88;;
41512;SDS011;27244;59.940;30.280;2022-12-28T14:42:02;11.38;;;7.13;;
41512;SDS011;27244;59.940;30.280;2022-12-28T14:44:31;11.05;;;6.72;;
41512;SDS011;27244;59.940;30.280;2022-12-28T14:47:27;10.93;;;6.72;;
41512;SDS011;27244;59.940;30.280;2022-12-28T14:50:00;9.38;;;6.47;;
41512;SDS011;27244;59.940;30.280;2022-12-28T14:52:32;10.18;;;6.60;;
41512;SDS011;27244;59.940;30.280;2022-12-28T14:55:18;11.07;;;6.32;;
41512;SDS011;27244;59.940;30.280;2022-12-28T14:57:47;10.43;;;6.32;;
41512;SDS011;27244;59.940;30.280;2022-12-28T15:00:22;9.10;;;6.00;;
41512;SDS011;27244;59.940;30.280;2022-12-28T15:02:54;9.82;;;6.15;;
41512;SDS011;27244;59.940;30.280;2022-12-28T15:05:35;9.00;;;5.88;;
41512;SDS011;27244;59.940;30.280;2022-12-28T15:08:04;9.02;;;5.85;;
41512;SDS011;27244;59.940;30.280;2022-12-28T15:10:32;8.55;;;5.55;;
41512;SDS011;27244;59.940;30.280;2022-12-28T15:13:04;7.97;;;5.57;;
41512;SDS011;27244;59.940;30.280;2022-12-28T15:15:34;8.85;;;5.63;;
41512;SDS011;27244;59.940;30.280;2022-12-28T15:18:03;8.00;;;5.40;;
41512;SDS011;27244;59.940;30.280;2022-12-28T15:20:30;7.97;;;5.50;;
41512;SDS011;27244;59.940;30.280;2022-12-28T15:22:57;9.02;;;5.65;;
41512;SDS011;27244;59.940;30.280;2022-12-28T15:25:24;20.65;;;17.25;;
41512;SDS011;27244;59.940;30.280;2022-12-28T15:27:52;18.15;;;14.82;;
41512;SDS011;27244;59.940;30.280;2022-12-28T15:30:19;11.18;;;9.77;;
41512;SDS011;27244;59.940;30.280;2022-12-28T15:32:46;10.82;;;8.90;;
41512;SDS011;27244;59.940;30.280;2022-12-28T15:35:15;13.52;;;9.98;;
41512;SDS011;27244;59.940;30.280;2022-12-28T15:37:42;13.30;;;11.05;;
41512;SDS011;27244;59.940;30.280;2022-12-28T15:40:09;11.48;;;10.25;;
41512;SDS011;27244;59.940;30.280;2022-12-28T15:42:41;12.65;;;10.35;;